createdAt,value
2022-09-29T00:01:10.362Z,3.00
2022-09-29T00:03:38.203Z,2.78
2022-09-29T00:06:12.812Z,3.20
2022-09-29T00:08:40.309Z,2.95
2022-09-29T00:11:16.161Z,2.90
2022-09-29T00:13:44.971Z,3.30
2022-09-29T00:16:13.477Z,3.42
2022-09-29T00:18:41.259Z,3.05
2022-09-29T00:21:11.861Z,2.70
2022-09-29T00:23:39.440Z,2.72
2022-09-29T00:26:19.522Z,3.08
2022-09-29T00:28:52.688Z,3.03
2022-09-29T00:31:21.341Z,2.97
2022-09-29T00:33:50.081Z,3.35
2022-09-29T00:36:19.432Z,2.55
2022-09-29T00:38:48.183Z,3.45
2022-09-29T00:41:18.362Z,3.28
2022-09-29T00:43:51.770Z,3.50
2022-09-29T00:46:26.942Z,3.58
2022-09-29T00:48:59.271Z,3.53
2022-09-29T00:51:29.249Z,4.28
2022-09-29T00:53:58.291Z,3.35
2022-09-29T00:56:26.211Z,3.75
2022-09-29T00:58:55.910Z,3.85
2022-09-29T01:01:25.531Z,4.10
2022-09-29T01:04:00.043Z,3.80
2022-09-29T01:06:36.290Z,3.88
2022-09-29T01:09:08.199Z,3.63
2022-09-29T01:11:35.682Z,3.42
2022-09-29T01:14:06.837Z,3.65
2022-09-29T01:16:35.916Z,3.47
2022-09-29T01:19:13.964Z,3.80
2022-09-29T01:21:48.552Z,3.72
2022-09-29T01:24:30.943Z,3.78
2022-09-29T01:27:01.183Z,4.00
2022-09-29T01:29:40.681Z,2.95
2022-09-29T01:32:21.589Z,3.90
2022-09-29T01:35:14.799Z,3.92
2022-09-29T01:37:44.949Z,3.17
2022-09-29T01:40:18.556Z,3.17
2022-09-29T01:42:52.269Z,3.40
2022-09-29T01:45:51.812Z,3.75
2022-09-29T01:48:25.542Z,3.80
2022-09-29T01:50:58.423Z,4.05
2022-09-29T01:53:37.212Z,3.85
2022-09-29T01:56:09.482Z,3.63
2022-09-29T01:58:45.562Z,3.90
2022-09-29T02:01:16.885Z,3.53
2022-09-29T02:03:51.397Z,3.92
2022-09-29T02:06:30.933Z,3.20
2022-09-29T02:09:03.163Z,3.30
2022-09-29T02:11:33.713Z,3.42
2022-09-29T02:14:24.043Z,4.13
2022-09-29T02:16:58.063Z,3.70
2022-09-29T02:19:29.422Z,4.20
2022-09-29T02:21:57.371Z,4.22
2022-09-29T02:24:25.012Z,4.13
2022-09-29T02:26:52.763Z,4.20
2022-09-29T02:29:21.013Z,4.07
2022-09-29T02:31:49.535Z,4.50
2022-09-29T02:34:21.888Z,3.95
2022-09-29T02:36:58.315Z,3.63
2022-09-29T02:39:46.972Z,3.95
2022-09-29T02:42:20.523Z,4.15
2022-09-29T02:45:03.144Z,4.70
2022-09-29T02:47:52.643Z,4.15
2022-09-29T02:50:23.063Z,4.30
2022-09-29T02:53:18.570Z,4.38
2022-09-29T02:55:52.062Z,4.65
2022-09-29T02:58:29.740Z,4.55
2022-09-29T03:00:58.660Z,4.82
2022-09-29T03:03:26.354Z,3.92
2022-09-29T03:05:54.161Z,4.95
2022-09-29T03:08:21.644Z,4.80
2022-09-29T03:10:49.770Z,4.82
2022-09-29T03:13:17.221Z,4.53
2022-09-29T03:15:44.662Z,4.78
2022-09-29T03:18:12.052Z,4.15
2022-09-29T03:20:39.773Z,4.30
2022-09-29T03:23:07.194Z,4.60
2022-09-29T03:25:34.954Z,3.95
2022-09-29T03:28:02.553Z,4.13
2022-09-29T03:30:30.053Z,4.38
2022-09-29T03:32:57.498Z,4.13
2022-09-29T03:35:24.970Z,4.47
2022-09-29T03:37:53.460Z,5.03
2022-09-29T03:40:21.064Z,5.13
2022-09-29T03:42:48.560Z,5.07
2022-09-29T03:45:16.122Z,4.30
2022-09-29T03:47:43.583Z,5.22
2022-09-29T03:50:11.704Z,5.35
2022-09-29T03:52:39.480Z,5.00
2022-09-29T03:55:07.471Z,5.00
2022-09-29T03:57:34.900Z,4.80
2022-09-29T04:00:02.660Z,5.18
2022-09-29T04:02:35.995Z,5.38
2022-09-29T04:05:03.682Z,4.82
2022-09-29T04:07:32.192Z,4.45
2022-09-29T04:09:59.716Z,4.80
2022-09-29T04:12:27.160Z,5.00
2022-09-29T04:14:54.633Z,5.00
2022-09-29T04:17:22.156Z,4.65
2022-09-29T04:19:49.640Z,5.05
2022-09-29T04:22:19.794Z,5.10
2022-09-29T04:24:48.421Z,4.63
2022-09-29T04:27:16.781Z,4.57
2022-09-29T04:29:44.423Z,4.38
2022-09-29T04:32:11.922Z,4.43
2022-09-29T04:34:39.403Z,4.95
2022-09-29T04:37:11.531Z,4.22
2022-09-29T04:39:39.087Z,4.35
2022-09-29T04:42:06.642Z,4.75
2022-09-29T04:44:34.203Z,4.30
2022-09-29T04:47:01.564Z,4.80
2022-09-29T04:49:29.326Z,4.82
2022-09-29T04:51:56.984Z,4.72
2022-09-29T04:54:24.660Z,4.88
2022-09-29T04:56:52.083Z,5.15
2022-09-29T04:59:19.562Z,4.20
2022-09-29T05:01:47.070Z,4.72
2022-09-29T05:04:14.580Z,5.03
2022-09-29T05:06:42.111Z,4.85
2022-09-29T05:09:09.961Z,4.97
2022-09-29T05:11:37.402Z,5.15
2022-09-29T05:14:05.063Z,4.57
2022-09-29T05:16:32.830Z,5.20
2022-09-29T05:19:00.503Z,4.40
2022-09-29T05:21:29.072Z,4.95
2022-09-29T05:23:57.448Z,5.00
2022-09-29T05:26:25.000Z,4.72
2022-09-29T05:28:52.432Z,5.25
2022-09-29T05:31:20.089Z,5.20
2022-09-29T05:33:47.651Z,4.82
2022-09-29T05:36:15.386Z,5.05
2022-09-29T05:38:43.072Z,5.22
2022-09-29T05:41:12.541Z,4.85
2022-09-29T05:43:40.687Z,4.97
2022-09-29T05:46:10.176Z,5.50
2022-09-29T05:48:37.953Z,4.53
2022-09-29T05:51:10.731Z,4.55
2022-09-29T05:53:38.862Z,4.80
2022-09-29T05:56:14.525Z,4.63
2022-09-29T05:58:42.610Z,4.50
2022-09-29T06:01:13.130Z,4.40
2022-09-29T06:03:41.132Z,4.63
2022-09-29T06:06:10.851Z,4.80
2022-09-29T06:08:38.402Z,4.78
2022-09-29T06:11:16.140Z,4.47
2022-09-29T06:13:49.172Z,4.68
2022-09-29T06:16:20.168Z,4.23
2022-09-29T06:18:48.240Z,4.32
2022-09-29T06:21:24.381Z,4.53
2022-09-29T06:23:54.201Z,4.43
2022-09-29T06:26:24.270Z,4.43
2022-09-29T06:28:56.600Z,3.85
2022-09-29T06:31:27.220Z,5.15
2022-09-29T06:34:00.162Z,4.88
2022-09-29T06:37:03.740Z,5.10
2022-09-29T06:39:31.271Z,4.20
2022-09-29T06:41:58.712Z,4.20
2022-09-29T06:44:28.583Z,4.13
2022-09-29T06:46:56.677Z,3.97
2022-09-29T06:49:25.070Z,5.18
2022-09-29T06:51:52.840Z,6.82
2022-09-29T06:54:25.191Z,7.35
2022-09-29T06:56:54.220Z,7.03
2022-09-29T06:59:21.849Z,6.00
2022-09-29T07:01:51.230Z,5.30
2022-09-29T07:04:20.886Z,4.63
2022-09-29T07:06:49.683Z,3.78
2022-09-29T07:09:18.300Z,2.80
2022-09-29T07:11:48.446Z,2.75
2022-09-29T07:14:17.294Z,2.70
2022-09-29T07:16:44.886Z,4.13
2022-09-29T07:19:12.503Z,4.10
2022-09-29T07:21:40.414Z,4.47
2022-09-29T07:24:09.233Z,4.80
2022-09-29T07:26:37.511Z,5.15
2022-09-29T07:29:05.308Z,4.78
2022-09-29T07:31:44.281Z,4.78
2022-09-29T07:34:12.930Z,5.15
2022-09-29T07:36:40.390Z,3.58
2022-09-29T07:39:07.922Z,2.72
2022-09-29T07:41:35.280Z,4.32
2022-09-29T07:44:03.274Z,4.05
2022-09-29T07:46:30.840Z,4.40
2022-09-29T07:48:58.594Z,4.32
2022-09-29T07:51:26.054Z,4.35
2022-09-29T07:53:53.742Z,4.57
2022-09-29T07:56:23.107Z,4.25
2022-09-29T07:58:51.162Z,4.47
2022-09-29T08:01:20.178Z,4.43
2022-09-29T08:03:55.393Z,5.63
2022-09-29T08:06:25.076Z,4.78
2022-09-29T08:09:04.652Z,4.53
2022-09-29T08:11:37.851Z,4.15
2022-09-29T08:14:05.683Z,4.22
2022-09-29T08:16:34.683Z,5.13
2022-09-29T08:19:04.184Z,4.95
2022-09-29T08:21:36.654Z,5.85
2022-09-29T08:24:05.720Z,5.85
2022-09-29T08:26:42.795Z,5.90
2022-09-29T08:29:16.347Z,5.75
2022-09-29T08:31:45.452Z,6.38
2022-09-29T08:34:14.007Z,5.40
2022-09-29T08:36:42.094Z,4.90
2022-09-29T08:39:10.603Z,4.88
2022-09-29T08:41:53.795Z,4.72
2022-09-29T08:44:38.468Z,4.60
2022-09-29T08:47:21.419Z,5.10
2022-09-29T08:50:03.394Z,5.10
2022-09-29T08:52:49.007Z,4.90
2022-09-29T08:55:21.853Z,3.95
2022-09-29T08:58:00.761Z,4.13
2022-09-29T09:00:40.731Z,3.97
2022-09-29T09:03:25.743Z,3.70
2022-09-29T09:06:35.336Z,3.95
2022-09-29T09:09:21.256Z,3.20
2022-09-29T09:12:10.969Z,3.63
2022-09-29T09:14:54.122Z,3.60
2022-09-29T09:17:39.684Z,3.33
2022-09-29T09:20:33.398Z,3.00
2022-09-29T09:23:35.953Z,3.60
2022-09-29T09:26:04.411Z,3.00
2022-09-29T09:28:41.502Z,3.40
2022-09-29T09:31:16.072Z,3.30
2022-09-29T09:33:59.474Z,3.05
2022-09-29T09:36:36.011Z,2.17
2022-09-29T09:39:10.731Z,2.33
2022-09-29T09:41:40.342Z,2.60
2022-09-29T09:44:17.453Z,2.85
2022-09-29T09:46:56.385Z,3.50
2022-09-29T09:49:37.212Z,3.38
2022-09-29T09:54:48.204Z,2.92
2022-09-29T09:57:34.502Z,2.63
2022-09-29T10:00:16.803Z,2.45
2022-09-29T10:02:50.347Z,2.58
2022-09-29T10:05:21.078Z,2.60
2022-09-29T10:07:49.300Z,2.20
2022-09-29T10:10:22.493Z,2.85
2022-09-29T10:13:03.015Z,2.80
2022-09-29T10:15:40.950Z,4.40
2022-09-29T10:18:16.829Z,3.65
2022-09-29T10:20:44.583Z,3.95
2022-09-29T10:23:24.982Z,4.18
2022-09-29T10:25:55.514Z,3.95
2022-09-29T10:28:24.403Z,3.60
2022-09-29T10:30:54.799Z,3.75
2022-09-29T10:33:25.822Z,4.07
2022-09-29T10:36:07.811Z,4.35
2022-09-29T10:38:37.504Z,4.15
2022-09-29T10:41:07.501Z,3.38
2022-09-29T10:43:34.891Z,2.85
2022-09-29T10:46:02.589Z,3.80
2022-09-29T10:48:30.222Z,4.05
2022-09-29T10:51:04.729Z,4.00
2022-09-29T10:53:43.223Z,4.07
2022-09-29T10:56:25.414Z,4.63
2022-09-29T10:59:52.563Z,4.60
2022-09-29T11:02:52.567Z,4.22
2022-09-29T11:05:23.777Z,4.15
2022-09-29T11:07:53.386Z,4.05
2022-09-29T11:10:36.981Z,3.97
2022-09-29T11:13:17.493Z,3.75
2022-09-29T11:15:45.476Z,3.60
2022-09-29T11:18:20.359Z,3.83
2022-09-29T11:20:56.807Z,3.47
2022-09-29T11:23:59.323Z,3.78
2022-09-29T11:26:47.315Z,4.00
2022-09-29T11:29:17.817Z,4.03
2022-09-29T11:32:15.055Z,3.92
2022-09-29T11:35:10.966Z,4.70
2022-09-29T11:38:00.433Z,4.13
2022-09-29T11:40:49.567Z,3.95
2022-09-29T11:43:26.903Z,3.60
2022-09-29T11:46:15.872Z,3.28
2022-09-29T11:49:56.098Z,3.15
2022-09-29T11:52:49.284Z,2.97
2022-09-29T11:55:27.253Z,3.10
2022-09-29T11:58:14.524Z,4.28
2022-09-29T12:01:01.702Z,3.72
2022-09-29T12:03:35.571Z,3.75
2022-09-29T12:08:38.929Z,3.80
2022-09-29T12:11:44.509Z,3.03
2022-09-29T12:14:19.237Z,3.65
2022-09-29T12:17:01.855Z,3.20
2022-09-29T12:19:34.063Z,3.55
2022-09-29T12:22:04.509Z,2.70
2022-09-29T12:24:39.086Z,3.60
2022-09-29T12:27:14.283Z,3.88
2022-09-29T12:29:46.835Z,4.07
2022-09-29T12:32:38.823Z,3.90
2022-09-29T12:35:18.802Z,4.90
2022-09-29T12:38:06.217Z,4.75
2022-09-29T12:40:45.176Z,4.68
2022-09-29T12:43:33.317Z,5.50
2022-09-29T12:46:12.195Z,5.32
2022-09-29T12:48:48.789Z,5.72
2022-09-29T12:51:22.245Z,4.88
2022-09-29T12:53:58.997Z,5.03
2022-09-29T12:56:32.395Z,5.35
2022-09-29T12:59:24.243Z,6.00
2022-09-29T13:01:56.763Z,5.80
2022-09-29T13:04:37.359Z,5.97
2022-09-29T13:07:39.678Z,5.75
2022-09-29T13:10:42.587Z,6.28
2022-09-29T13:13:51.287Z,5.80
2022-09-29T13:16:42.057Z,5.80
2022-09-29T13:19:22.880Z,6.63
2022-09-29T13:22:08.638Z,5.97
2022-09-29T13:24:36.637Z,5.85
2022-09-29T13:27:28.126Z,5.35
2022-09-29T13:30:11.342Z,4.70
2022-09-29T13:32:42.809Z,5.53
2022-09-29T13:35:18.365Z,3.90
2022-09-29T13:37:52.236Z,4.60
2022-09-29T13:42:51.455Z,4.28
2022-09-29T13:45:26.806Z,4.22
2022-09-29T13:48:02.132Z,3.95
2022-09-29T13:50:45.347Z,4.13
2022-09-29T13:53:22.197Z,4.82
2022-09-29T13:55:50.906Z,4.93
2022-09-29T13:58:31.982Z,4.88
2022-09-29T14:01:07.618Z,5.43
2022-09-29T14:03:43.620Z,5.47
2022-09-29T14:06:40.084Z,5.80
2022-09-29T14:09:16.413Z,5.72
2022-09-29T14:11:49.775Z,5.80
2022-09-29T14:14:21.443Z,5.57
2022-09-29T14:17:04.624Z,4.80
2022-09-29T14:19:35.865Z,6.00
2022-09-29T14:22:07.191Z,4.82
2022-09-29T14:24:34.656Z,4.90
2022-09-29T14:27:22.307Z,5.32
2022-09-29T14:30:20.201Z,5.25
2022-09-29T14:32:58.640Z,4.68
2022-09-29T14:35:41.133Z,4.47
2022-09-29T14:38:20.055Z,4.53
2022-09-29T14:41:19.635Z,3.80
2022-09-29T14:43:52.756Z,3.88
2022-09-29T14:46:44.785Z,4.10
2022-09-29T14:50:01.909Z,4.00
2022-09-29T14:52:42.997Z,3.42
2022-09-29T14:56:00.244Z,4.18
2022-09-29T14:58:45.715Z,4.22
2022-09-29T15:01:19.064Z,5.20
2022-09-29T15:03:50.221Z,5.00
2022-09-29T15:06:22.334Z,4.75
2022-09-29T15:09:11.755Z,5.05
2022-09-29T15:11:50.987Z,5.68
2022-09-29T15:14:21.142Z,5.00
2022-09-29T15:16:51.025Z,4.90
2022-09-29T15:19:36.395Z,5.30
2022-09-29T15:22:18.816Z,5.85
2022-09-29T15:24:46.235Z,5.88
2022-09-29T15:27:15.422Z,6.43
2022-09-29T15:29:48.180Z,6.50
2022-09-29T15:32:24.915Z,6.75
2022-09-29T15:34:56.136Z,6.22
2022-09-29T15:37:24.074Z,7.50
2022-09-29T15:39:53.550Z,6.97
2022-09-29T15:42:23.758Z,6.90
2022-09-29T15:44:55.412Z,5.70
2022-09-29T15:47:37.885Z,5.60
2022-09-29T15:50:21.315Z,4.70
2022-09-29T15:52:50.670Z,3.90
2022-09-29T15:55:27.741Z,4.00
2022-09-29T15:57:58.168Z,3.30
2022-09-29T16:00:28.214Z,3.25
2022-09-29T16:03:24.354Z,3.22
2022-09-29T16:06:06.203Z,3.03
2022-09-29T16:08:40.413Z,2.72
2022-09-29T16:11:20.701Z,3.40
2022-09-29T16:13:55.205Z,4.57
2022-09-29T16:16:30.337Z,5.70
2022-09-29T16:19:02.513Z,6.07
2022-09-29T16:21:35.537Z,6.03
2022-09-29T16:24:12.926Z,5.83
2022-09-29T16:26:43.496Z,6.20
2022-09-29T16:29:10.915Z,5.35
2022-09-29T16:31:40.721Z,4.63
2022-09-29T16:34:23.495Z,4.70
2022-09-29T16:36:53.730Z,4.82
2022-09-29T16:39:27.083Z,5.13
2022-09-29T16:41:57.795Z,5.13
2022-09-29T16:44:32.184Z,4.97
2022-09-29T16:47:27.413Z,4.60
2022-09-29T16:50:09.359Z,5.45
2022-09-29T16:52:41.889Z,5.00
2022-09-29T16:55:15.403Z,4.32
2022-09-29T16:57:59.303Z,4.13
2022-09-29T17:00:27.130Z,4.25
2022-09-29T17:02:56.061Z,4.07
2022-09-29T17:05:25.467Z,4.05
2022-09-29T17:08:01.464Z,4.05
2022-09-29T17:10:29.095Z,4.20
2022-09-29T17:12:58.145Z,4.30
2022-09-29T17:15:26.380Z,4.30
2022-09-29T17:17:53.913Z,4.63
2022-09-29T17:20:30.315Z,4.43
2022-09-29T17:23:00.229Z,4.90
2022-09-29T17:25:28.665Z,4.50
2022-09-29T17:28:15.354Z,5.05
2022-09-29T17:30:48.163Z,5.28
2022-09-29T17:33:17.448Z,5.20
2022-09-29T17:35:55.211Z,5.10
2022-09-29T17:38:24.227Z,5.07
2022-09-29T17:40:57.605Z,5.50
2022-09-29T17:43:25.100Z,5.05
2022-09-29T17:45:55.219Z,5.43
2022-09-29T17:48:23.583Z,5.97
2022-09-29T17:50:55.005Z,5.95
2022-09-29T17:53:25.445Z,5.40
2022-09-29T17:55:56.146Z,5.35
2022-09-29T17:58:23.821Z,5.43
2022-09-29T18:00:54.015Z,6.10
2022-09-29T18:03:22.183Z,5.88
2022-09-29T18:06:00.223Z,6.68
2022-09-29T18:08:29.703Z,7.72
2022-09-29T18:10:59.556Z,6.80
2022-09-29T18:13:28.746Z,7.40
2022-09-29T18:15:58.191Z,7.32
2022-09-29T18:18:26.165Z,7.32
2022-09-29T18:20:53.674Z,8.70
2022-09-29T18:23:23.221Z,7.32
2022-09-29T18:25:52.438Z,8.00
2022-09-29T18:28:20.699Z,7.45
2022-09-29T18:30:52.259Z,8.35
2022-09-29T18:33:21.094Z,8.35
2022-09-29T18:35:53.341Z,7.35
2022-09-29T18:38:21.377Z,7.60
2022-09-29T18:40:52.175Z,6.78
2022-09-29T18:43:20.888Z,6.15
2022-09-29T18:45:49.534Z,5.68
2022-09-29T18:48:16.975Z,5.82
2022-09-29T18:50:46.825Z,6.05
2022-09-29T18:53:16.814Z,7.53
2022-09-29T18:55:44.416Z,7.38
2022-09-29T18:58:17.263Z,7.30
2022-09-29T19:00:50.377Z,8.50
2022-09-29T19:03:19.372Z,8.13
2022-09-29T19:05:48.061Z,9.05
2022-09-29T19:08:17.108Z,8.35
2022-09-29T19:10:55.993Z,8.50
2022-09-29T19:13:23.453Z,8.35
2022-09-29T19:15:51.132Z,7.88
2022-09-29T19:18:23.837Z,7.30
2022-09-29T19:20:54.313Z,7.55
2022-09-29T19:23:22.705Z,7.10
2022-09-29T19:25:54.663Z,6.80
2022-09-29T19:28:23.938Z,7.15
2022-09-29T19:30:51.370Z,6.90
2022-09-29T19:33:21.323Z,7.85
2022-09-29T19:35:52.259Z,7.38
2022-09-29T19:38:20.576Z,7.35
2022-09-29T19:40:49.210Z,7.15
2022-09-29T19:43:16.810Z,7.80
2022-09-29T19:45:44.863Z,7.68
2022-09-29T19:48:17.906Z,8.35
2022-09-29T19:51:04.886Z,8.30
2022-09-29T19:53:34.217Z,7.28
2022-09-29T19:56:02.075Z,8.05
2022-09-29T19:58:29.555Z,8.02
2022-09-29T20:00:57.671Z,8.05
2022-09-29T20:03:25.711Z,7.80
2022-09-29T20:05:59.856Z,7.93
2022-09-29T20:08:28.145Z,6.93
2022-09-29T20:10:55.874Z,7.43
2022-09-29T20:13:23.341Z,7.30
2022-09-29T20:15:51.836Z,6.70
2022-09-29T20:18:19.475Z,6.97
2022-09-29T20:20:51.636Z,6.63
2022-09-29T20:23:19.244Z,6.00
2022-09-29T20:25:46.633Z,7.07
2022-09-29T20:28:15.569Z,6.40
2022-09-29T20:30:43.176Z,7.32
2022-09-29T20:33:10.550Z,7.40
2022-09-29T20:35:39.394Z,7.07
2022-09-29T20:38:07.304Z,6.47
2022-09-29T20:40:34.713Z,7.80
2022-09-29T20:43:02.216Z,7.85
2022-09-29T20:45:29.805Z,7.55
2022-09-29T20:47:57.332Z,6.95
2022-09-29T20:50:24.755Z,7.97
2022-09-29T20:52:53.154Z,8.30
2022-09-29T20:55:20.624Z,9.07
2022-09-29T20:57:56.415Z,8.75
2022-09-29T21:00:27.106Z,9.73
2022-09-29T21:02:54.561Z,8.90
2022-09-29T21:05:22.071Z,9.55
2022-09-29T21:07:49.543Z,9.50
2022-09-29T21:10:17.505Z,9.63
2022-09-29T21:12:45.976Z,10.75
2022-09-29T21:15:13.425Z,10.45
2022-09-29T21:17:40.903Z,9.63
2022-09-29T21:20:08.435Z,9.43
2022-09-29T21:22:35.861Z,8.90
2022-09-29T21:25:03.471Z,8.65
2022-09-29T21:27:31.891Z,7.97
2022-09-29T21:29:59.373Z,7.63
2022-09-29T21:32:26.861Z,8.27
2022-09-29T21:34:54.292Z,6.68
2022-09-29T21:37:21.853Z,6.90
2022-09-29T21:39:49.261Z,8.73
2022-09-29T21:42:16.690Z,8.80
2022-09-29T21:44:45.290Z,8.77
2022-09-29T21:47:13.160Z,8.63
2022-09-29T21:49:41.216Z,8.98
2022-09-29T21:52:08.600Z,9.25
2022-09-29T21:54:37.771Z,8.50
2022-09-29T21:57:06.972Z,8.65
2022-09-29T21:59:34.415Z,8.50
2022-09-29T22:02:01.945Z,9.70
2022-09-29T22:04:29.494Z,9.57
2022-09-29T22:06:57.713Z,8.93
2022-09-29T22:09:25.172Z,8.98
2022-09-29T22:11:52.754Z,8.75
2022-09-29T22:14:20.348Z,7.93
2022-09-29T22:16:48.025Z,7.32
2022-09-29T22:19:23.994Z,6.78
2022-09-29T22:21:53.648Z,6.90
2022-09-29T22:24:21.515Z,6.40
2022-09-29T22:26:48.941Z,6.15
2022-09-29T22:29:16.451Z,6.05
2022-09-29T22:31:43.931Z,5.95
2022-09-29T22:34:11.509Z,6.72
2022-09-29T22:36:39.391Z,6.28
2022-09-29T22:39:07.148Z,5.70
2022-09-29T22:41:37.011Z,6.30
2022-09-29T22:44:04.765Z,6.10
2022-09-29T22:46:33.198Z,5.75
2022-09-29T22:49:00.909Z,5.07
2022-09-29T22:51:28.733Z,4.65
2022-09-29T22:53:56.224Z,5.05
2022-09-29T22:56:30.668Z,4.97
2022-09-29T22:59:04.390Z,5.25
2022-09-29T23:04:01.388Z,4.72
2022-09-29T23:06:28.835Z,4.70
2022-09-29T23:08:56.220Z,4.72
2022-09-29T23:11:24.114Z,4.80
2022-09-29T23:13:53.003Z,4.95
2022-09-29T23:16:20.858Z,4.45
2022-09-29T23:18:55.793Z,4.43
2022-09-29T23:21:24.593Z,4.28
2022-09-29T23:24:00.605Z,5.22
2022-09-29T23:26:30.296Z,5.45
2022-09-29T23:28:58.733Z,5.43
2022-09-29T23:31:27.319Z,5.18
2022-09-29T23:33:57.121Z,4.80
2022-09-29T23:36:26.931Z,4.90
2022-09-29T23:39:10.051Z,5.90
2022-09-29T23:41:52.657Z,4.80
2022-09-29T23:44:22.881Z,4.90
2022-09-29T23:46:51.169Z,4.43
2022-09-29T23:49:20.352Z,4.40
2022-09-29T23:51:53.721Z,4.40
2022-09-29T23:54:23.891Z,4.95
2022-09-29T23:56:53.260Z,5.35
2022-09-29T23:59:20.743Z,5.70
